Time;durP1;ratioP1;P1;durP2;ratioP2;P2;SDS_P1;SDS_P2;PMS_P1;PMS_P2;Temp;Humidity;BMP_temperature;BMP_pressure;BME280_temperature;BME280_humidity;BME280_pressure;Samples;Min_cycle;Max_cycle;Signal;HPM_P1;HPM_P2
2022/04/07 00:02:27;;;;;;;3.55;3.00;;;;;;;;;;6297441;28;20126;-72
2022/04/07 00:05:28;;;;;;;5.20;2.92;;;;;;;;;;6295578;28;20055;-71
2022/04/07 00:08:30;;;;;;;3.85;2.90;;;;;;;;;;6297093;28;20127;-71
2022/04/07 00:11:32;;;;;;;3.60;2.92;;;;;;;;;;6295954;28;20135;-72
2022/04/07 00:14:33;;;;;;;3.92;2.65;;;;;;;;;;6296794;28;20044;-71
2022/04/07 00:17:36;;;;;;;5.00;3.40;;;;;;;;;;6296209;28;20135;-72
2022/04/07 00:20:38;;;;;;;5.10;3.28;;;;;;;;;;6294233;28;20581;-71
2022/04/07 00:23:40;;;;;;;5.82;3.08;;;;;;;;;;6295903;28;20515;-71
2022/04/07 00:26:41;;;;;;;5.35;3.22;;;;;;;;;;6293002;28;20052;-71
2022/04/07 00:29:43;;;;;;;4.32;3.65;;;;;;;;;;6295858;28;20045;-71
2022/04/07 00:32:46;;;;;;;4.40;3.75;;;;;;;;;;6295801;28;20094;-71
2022/04/07 00:35:48;;;;;;;4.05;3.42;;;;;;;;;;6295426;28;20442;-71
2022/04/07 00:38:49;;;;;;;6.30;3.45;;;;;;;;;;6295478;28;20585;-71
2022/04/07 00:41:51;;;;;;;5.22;4.10;;;;;;;;;;6296265;28;20052;-71
2022/04/07 00:44:52;;;;;;;6.10;4.03;;;;;;;;;;6295547;28;20098;-71
2022/04/07 00:47:55;;;;;;;4.72;4.10;;;;;;;;;;6296137;28;20045;-72
2022/04/07 00:50:58;;;;;;;4.18;3.78;;;;;;;;;;6295397;28;20131;-71
2022/04/07 00:53:59;;;;;;;5.68;3.85;;;;;;;;;;6293141;28;20103;-71
2022/04/07 00:57:01;;;;;;;5.35;3.75;;;;;;;;;;6295019;28;20174;-71
2022/04/07 01:00:04;;;;;;;6.47;3.90;;;;;;;;;;6295689;28;20164;-71
2022/04/07 01:03:08;;;;;;;6.13;3.83;;;;;;;;;;6294691;28;20049;-71
2022/04/07 01:06:10;;;;;;;5.28;3.92;;;;;;;;;;6295155;28;20066;-71
2022/04/07 01:09:12;;;;;;;6.20;4.13;;;;;;;;;;6295484;28;20039;-71
2022/04/07 01:12:14;;;;;;;7.00;4.35;;;;;;;;;;6295246;28;20131;-72
2022/04/07 01:15:16;;;;;;;7.03;4.47;;;;;;;;;;6294950;28;20066;-72
2022/04/07 01:18:18;;;;;;;5.07;3.90;;;;;;;;;;6295152;28;20507;-72
2022/04/07 01:21:21;;;;;;;6.13;4.45;;;;;;;;;;6294961;28;20079;-72
2022/04/07 01:24:30;;;;;;;6.50;4.40;;;;;;;;;;6294374;28;20048;-72
2022/04/07 01:27:32;;;;;;;5.60;4.10;;;;;;;;;;6293296;28;20186;-72
2022/04/07 01:30:34;;;;;;;4.70;4.20;;;;;;;;;;6294966;28;20055;-72
2022/04/07 01:33:36;;;;;;;5.68;4.25;;;;;;;;;;6294565;28;20052;-72
2022/04/07 01:36:40;;;;;;;6.18;4.47;;;;;;;;;;6294731;28;20129;-71
2022/04/07 01:39:44;;;;;;;5.45;4.25;;;;;;;;;;6293257;28;20063;-72
2022/04/07 01:42:46;;;;;;;6.60;4.40;;;;;;;;;;6294137;28;20408;-72
2022/04/07 01:45:48;;;;;;;6.25;4.20;;;;;;;;;;6294033;28;20700;-72
2022/04/07 01:48:50;;;;;;;6.78;4.38;;;;;;;;;;6293971;28;20115;-72
2022/04/07 01:51:51;;;;;;;6.30;4.43;;;;;;;;;;6294024;28;20400;-72
2022/04/07 01:54:55;;;;;;;6.90;4.50;;;;;;;;;;6294384;28;20083;-72
2022/04/07 01:57:56;;;;;;;6.40;4.00;;;;;;;;;;6294157;28;20157;-71
2022/04/07 02:00:58;;;;;;;5.68;4.10;;;;;;;;;;6292979;28;20044;-72
2022/04/07 02:04:00;;;;;;;6.70;4.35;;;;;;;;;;6294091;28;20051;-72
2022/04/07 02:07:01;;;;;;;5.93;4.13;;;;;;;;;;6293614;28;20135;-72
2022/04/07 02:10:05;;;;;;;7.53;4.30;;;;;;;;;;6293996;28;20553;-71
2022/04/07 02:13:07;;;;;;;4.93;3.83;;;;;;;;;;6292624;28;20117;-72
2022/04/07 02:16:11;;;;;;;5.82;4.22;;;;;;;;;;6293528;28;20133;-72
2022/04/07 02:19:12;;;;;;;6.68;3.85;;;;;;;;;;6291373;28;20045;-70
2022/04/07 02:22:14;;;;;;;5.95;4.40;;;;;;;;;;6293512;28;20084;-70
2022/04/07 02:25:17;;;;;;;5.85;4.15;;;;;;;;;;6292330;28;20082;-70
2022/04/07 02:28:19;;;;;;;5.07;4.13;;;;;;;;;;6293184;28;20052;-72
2022/04/07 02:31:20;;;;;;;5.78;4.03;;;;;;;;;;6293104;28;20047;-71
2022/04/07 02:34:22;;;;;;;6.00;4.10;;;;;;;;;;6292671;28;20059;-71
2022/04/07 02:37:25;;;;;;;5.30;4.47;;;;;;;;;;6293273;28;20126;-71
2022/04/07 02:40:28;;;;;;;6.45;4.57;;;;;;;;;;6293712;28;20054;-71
2022/04/07 02:43:29;;;;;;;6.05;4.45;;;;;;;;;;6292199;28;20059;-71
2022/04/07 02:46:31;;;;;;;7.30;4.30;;;;;;;;;;6293197;28;20056;-71
2022/04/07 02:49:32;;;;;;;4.57;3.72;;;;;;;;;;6292888;28;20123;-71
2022/04/07 02:52:34;;;;;;;5.85;4.32;;;;;;;;;;6292909;28;20060;-71
2022/04/07 02:55:37;;;;;;;5.90;4.43;;;;;;;;;;6292704;28;20068;-71
2022/04/07 02:58:39;;;;;;;5.65;3.53;;;;;;;;;;6293449;28;20121;-71
2022/04/07 03:01:40;;;;;;;5.55;4.13;;;;;;;;;;6292907;28;20060;-71
2022/04/07 03:04:42;;;;;;;9.48;4.20;;;;;;;;;;6293374;28;20195;-71
2022/04/07 03:07:43;;;;;;;4.93;4.07;;;;;;;;;;6292296;28;20044;-71
2022/04/07 03:10:47;;;;;;;4.70;3.78;;;;;;;;;;6292784;28;20048;-71
2022/04/07 03:13:48;;;;;;;6.50;3.83;;;;;;;;;;6293079;28;20071;-71
2022/04/07 03:16:50;;;;;;;4.90;3.80;;;;;;;;;;6292533;28;20138;-71
2022/04/07 03:19:52;;;;;;;4.57;3.80;;;;;;;;;;6292925;28;20040;-73
2022/04/07 03:22:53;;;;;;;9.25;4.53;;;;;;;;;;6292295;28;20209;-72
2022/04/07 03:25:56;;;;;;;5.28;3.97;;;;;;;;;;6293009;28;20083;-72
2022/04/07 03:28:58;;;;;;;5.22;3.80;;;;;;;;;;6292591;28;20408;-72
2022/04/07 03:32:00;;;;;;;7.00;4.10;;;;;;;;;;6291019;28;20052;-72
2022/04/07 03:35:01;;;;;;;3.83;3.30;;;;;;;;;;6291823;28;20045;-72
2022/04/07 03:38:03;;;;;;;7.00;4.03;;;;;;;;;;6292870;28;20049;-72
2022/04/07 03:41:07;;;;;;;5.20;3.75;;;;;;;;;;6292222;28;20052;-72
2022/04/07 03:44:09;;;;;;;5.10;3.97;;;;;;;;;;6292694;28;20558;-72
2022/04/07 03:47:11;;;;;;;5.60;3.95;;;;;;;;;;6295949;28;20047;-72
2022/04/07 03:50:13;;;;;;;6.18;3.90;;;;;;;;;;6297087;28;20055;-72
2022/04/07 03:53:15;;;;;;;5.85;4.00;;;;;;;;;;6295199;28;20125;-72
2022/04/07 03:56:17;;;;;;;6.10;4.00;;;;;;;;;;6297265;28;20627;-72
2022/04/07 03:59:19;;;;;;;4.40;3.92;;;;;;;;;;6296583;28;20145;-71
2022/04/07 04:02:21;;;;;;;5.32;4.03;;;;;;;;;;6296897;28;20618;-71
2022/04/07 04:05:22;;;;;;;6.53;4.25;;;;;;;;;;6295933;28;20098;-71
2022/04/07 04:08:24;;;;;;;4.68;4.00;;;;;;;;;;6296681;28;20044;-71
2022/04/07 04:11:27;;;;;;;5.72;4.60;;;;;;;;;;6296133;28;20044;-71
2022/04/07 04:14:29;;;;;;;5.47;4.00;;;;;;;;;;6295957;28;20130;-71
2022/04/07 04:17:31;;;;;;;6.00;4.70;;;;;;;;;;6295690;28;20049;-72
2022/04/07 04:20:33;;;;;;;8.68;5.15;;;;;;;;;;6296580;28;20460;-71
2022/04/07 04:23:35;;;;;;;6.95;5.43;;;;;;;;;;6295913;28;20040;-71
2022/04/07 04:26:38;;;;;;;7.88;5.15;;;;;;;;;;6296070;28;20139;-71
2022/04/07 04:29:40;;;;;;;8.93;5.10;;;;;;;;;;6295993;28;20565;-71
2022/04/07 04:32:43;;;;;;;9.63;4.75;;;;;;;;;;6295434;28;20060;-71
2022/04/07 04:35:45;;;;;;;7.05;5.25;;;;;;;;;;6293152;28;20052;-71
2022/04/07 04:38:47;;;;;;;8.18;5.00;;;;;;;;;;6295890;28;20064;-71
2022/04/07 04:41:50;;;;;;;10.30;6.20;;;;;;;;;;6295735;28;20098;-71
2022/04/07 04:44:51;;;;;;;10.55;6.35;;;;;;;;;;6295514;28;20041;-70
2022/04/07 04:47:53;;;;;;;8.18;6.28;;;;;;;;;;6296017;28;20052;-71
2022/04/07 04:50:56;;;;;;;9.95;6.38;;;;;;;;;;6292486;28;20041;-71
2022/04/07 04:53:57;;;;;;;13.80;7.32;;;;;;;;;;6295578;28;20055;-71
2022/04/07 04:57:00;;;;;;;11.00;7.13;;;;;;;;;;6294299;28;20135;-71
2022/04/07 05:00:03;;;;;;;10.77;6.28;;;;;;;;;;6296071;28;20044;-71
2022/04/07 05:03:04;;;;;;;9.77;6.85;;;;;;;;;;6292382;28;20492;-71
2022/04/07 05:06:06;;;;;;;9.32;6.00;;;;;;;;;;6295646;28;20135;-71
2022/04/07 05:09:08;;;;;;;11.10;6.72;;;;;;;;;;6294687;28;20044;-69
2022/04/07 05:12:11;;;;;;;7.68;6.22;;;;;;;;;;6294726;28;20048;-70
2022/04/07 05:15:12;;;;;;;10.73;6.40;;;;;;;;;;6292383;28;20060;-70
2022/04/07 05:18:14;;;;;;;7.03;5.85;;;;;;;;;;6294999;28;20057;-75
2022/04/07 05:21:16;;;;;;;9.35;6.05;;;;;;;;;;6294407;28;20056;-71
2022/04/07 05:24:18;;;;;;;7.93;6.45;;;;;;;;;;6295082;28;20052;-71
2022/04/07 05:27:21;;;;;;;9.90;6.53;;;;;;;;;;6293839;28;20049;-72
2022/04/07 05:30:23;;;;;;;9.60;6.53;;;;;;;;;;6292142;28;20208;-72
2022/04/07 05:33:25;;;;;;;10.57;6.55;;;;;;;;;;6293880;28;20044;-72
2022/04/07 05:36:27;;;;;;;9.80;6.55;;;;;;;;;;6296290;28;20052;-72
2022/04/07 05:39:28;;;;;;;9.68;6.57;;;;;;;;;;6293844;28;20541;-72
2022/04/07 05:42:32;;;;;;;8.82;6.90;;;;;;;;;;6294280;28;20056;-72
2022/04/07 05:45:34;;;;;;;9.18;6.85;;;;;;;;;;6290727;28;20556;-72
2022/04/07 05:48:36;;;;;;;10.05;6.93;;;;;;;;;;6293847;28;20102;-72
2022/04/07 05:51:38;;;;;;;10.70;7.13;;;;;;;;;;6293776;28;20044;-72
2022/04/07 05:54:39;;;;;;;8.27;7.00;;;;;;;;;;6293733;28;20578;-71
2022/04/07 05:57:43;;;;;;;9.05;7.03;;;;;;;;;;6293296;28;20056;-71
2022/04/07 06:00:45;;;;;;;9.02;7.10;;;;;;;;;;6294035;28;20056;-71
2022/04/07 06:03:46;;;;;;;9.57;7.20;;;;;;;;;;6293022;28;20056;-71
2022/04/07 06:06:48;;;;;;;11.00;7.47;;;;;;;;;;6292784;28;20136;-71
2022/04/07 06:09:49;;;;;;;11.35;7.25;;;;;;;;;;6293186;28;20067;-72
2022/04/07 06:12:52;;;;;;;9.35;7.00;;;;;;;;;;6292292;28;20064;-70
2022/04/07 06:15:54;;;;;;;11.50;7.90;;;;;;;;;;6291792;28;20094;-71
2022/04/07 06:18:56;;;;;;;10.43;7.80;;;;;;;;;;6292328;28;20163;-71
2022/04/07 06:21:58;;;;;;;10.38;7.45;;;;;;;;;;6292660;28;20072;-71
2022/04/07 06:24:59;;;;;;;10.93;8.15;;;;;;;;;;6291594;28;20041;-71
2022/04/07 06:28:04;;;;;;;10.45;8.05;;;;;;;;;;6292788;28;20129;-71
2022/04/07 06:31:05;;;;;;;9.18;7.82;;;;;;;;;;6291777;28;20122;-71
2022/04/07 06:34:07;;;;;;;15.10;8.40;;;;;;;;;;6292058;28;20052;-72
2022/04/07 06:37:08;;;;;;;10.50;7.53;;;;;;;;;;6291776;28;20054;-71
2022/04/07 06:40:11;;;;;;;10.00;7.68;;;;;;;;;;6291262;28;20129;-72
2022/04/07 06:43:14;;;;;;;11.95;7.00;;;;;;;;;;6291943;28;20511;-71
2022/04/07 06:46:15;;;;;;;11.38;7.00;;;;;;;;;;6292303;28;20570;-71
2022/04/07 06:49:17;;;;;;;8.52;6.28;;;;;;;;;;6292050;28;20535;-71
2022/04/07 06:52:19;;;;;;;12.70;7.30;;;;;;;;;;6292220;28;20044;-71
2022/04/07 06:55:21;;;;;;;8.65;6.88;;;;;;;;;;6291784;28;20130;-72
2022/04/07 06:58:24;;;;;;;11.82;7.00;;;;;;;;;;6293073;28;20086;-72
2022/04/07 07:01:26;;;;;;;11.07;7.20;;;;;;;;;;6292522;28;20053;-72
2022/04/07 07:04:27;;;;;;;10.63;6.90;;;;;;;;;;6292969;28;20100;-72
2022/04/07 07:07:29;;;;;;;12.45;7.10;;;;;;;;;;6292439;28;20090;-72
2022/04/07 07:10:30;;;;;;;11.05;6.15;;;;;;;;;;6292738;28;20044;-72
2022/04/07 07:13:36;;;;;;;10.27;7.13;;;;;;;;;;6290515;28;20559;-72
2022/04/07 07:16:37;;;;;;;11.65;6.93;;;;;;;;;;6291869;28;20540;-71
2022/04/07 07:19:39;;;;;;;9.20;7.28;;;;;;;;;;6290883;28;20045;-71
2022/04/07 07:22:42;;;;;;;10.52;7.38;;;;;;;;;;6297204;28;20139;-71
2022/04/07 07:25:44;;;;;;;13.93;8.63;;;;;;;;;;6296903;28;20060;-71
2022/04/07 07:28:47;;;;;;;12.88;7.03;;;;;;;;;;6297237;28;20104;-73
2022/04/07 07:31:49;;;;;;;13.40;7.20;;;;;;;;;;6297266;28;20040;-71
2022/04/07 07:34:50;;;;;;;10.65;7.57;;;;;;;;;;6296743;28;20048;-71
2022/04/07 07:37:53;;;;;;;10.77;7.25;;;;;;;;;;6297505;28;20129;-71
2022/04/07 07:40:54;;;;;;;14.57;6.95;;;;;;;;;;6296304;28;20129;-71
2022/04/07 07:43:57;;;;;;;10.05;7.45;;;;;;;;;;6296622;28;20072;-71
2022/04/07 07:46:59;;;;;;;9.53;6.83;;;;;;;;;;6296708;28;20047;-71
2022/04/07 07:50:01;;;;;;;9.30;7.15;;;;;;;;;;6297105;28;20048;-72
2022/04/07 07:53:02;;;;;;;10.90;6.43;;;;;;;;;;6296344;28;20062;-71
2022/04/07 07:56:04;;;;;;;12.10;6.75;;;;;;;;;;6296935;28;20052;-69
2022/04/07 07:59:07;;;;;;;8.68;6.10;;;;;;;;;;6296326;28;20392;-71
2022/04/07 08:02:09;;;;;;;7.35;6.25;;;;;;;;;;6296214;28;20123;-72
2022/04/07 08:05:11;;;;;;;12.18;7.20;;;;;;;;;;6296182;28;20051;-72
2022/04/07 08:08:13;;;;;;;9.85;6.63;;;;;;;;;;6296460;28;20044;-71
2022/04/07 08:11:14;;;;;;;9.95;6.20;;;;;;;;;;6298911;28;20084;-73
2022/04/07 08:14:17;;;;;;;8.55;6.15;;;;;;;;;;6297446;28;20045;-73
2022/04/07 08:17:20;;;;;;;10.23;7.47;;;;;;;;;;6295554;28;20445;-73
2022/04/07 08:20:21;;;;;;;11.13;6.30;;;;;;;;;;6296306;28;20489;-74
2022/04/07 08:23:24;;;;;;;8.63;6.95;;;;;;;;;;6293418;28;20060;-74
2022/04/07 08:26:26;;;;;;;9.40;6.55;;;;;;;;;;6293805;28;20050;-73
2022/04/07 08:29:29;;;;;;;10.48;7.20;;;;;;;;;;6293645;28;20097;-73
2022/04/07 08:32:33;;;;;;;11.47;7.87;;;;;;;;;;6292726;28;20040;-72
2022/04/07 08:35:34;;;;;;;9.27;7.30;;;;;;;;;;6295292;28;20542;-73
2022/04/07 08:38:36;;;;;;;10.88;6.82;;;;;;;;;;6296580;28;20384;-72
2022/04/07 08:41:39;;;;;;;11.50;6.95;;;;;;;;;;6295790;28;20499;-72
2022/04/07 08:44:42;;;;;;;10.63;6.65;;;;;;;;;;6294448;28;20441;-72
2022/04/07 08:47:47;;;;;;;7.50;6.80;;;;;;;;;;6294654;28;20056;-72
2022/04/07 08:50:50;;;;;;;9.15;7.25;;;;;;;;;;6294733;28;20080;-70
2022/04/07 08:53:52;;;;;;;8.80;7.35;;;;;;;;;;6295776;28;20420;-74
2022/04/07 08:56:54;;;;;;;11.55;8.23;;;;;;;;;;6295308;28;20474;-74
2022/04/07 08:59:57;;;;;;;10.07;7.50;;;;;;;;;;6296182;28;20052;-73
2022/04/07 09:03:00;;;;;;;9.30;8.30;;;;;;;;;;6294957;28;20059;-73
2022/04/07 09:06:02;;;;;;;12.70;8.95;;;;;;;;;;6295592;28;20045;-73
2022/04/07 09:09:12;;;;;;;13.20;8.75;;;;;;;;;;6294605;28;20114;-71
2022/04/07 09:12:24;;;;;;;9.05;8.05;;;;;;;;;;6294636;28;20047;-72
2022/04/07 09:15:28;;;;;;;15.88;9.27;;;;;;;;;;6293892;28;20400;-71
2022/04/07 09:18:34;;;;;;;11.27;8.45;;;;;;;;;;6294763;28;20045;-72
2022/04/07 09:21:37;;;;;;;10.30;8.85;;;;;;;;;;6294933;28;20071;-72
2022/04/07 09:24:39;;;;;;;11.07;9.63;;;;;;;;;;6295356;28;20063;-72
2022/04/07 09:27:41;;;;;;;11.13;8.70;;;;;;;;;;6294465;28;20138;-72
2022/04/07 09:30:50;;;;;;;14.40;10.88;;;;;;;;;;6293733;28;20124;-73
2022/04/07 09:33:56;;;;;;;12.23;9.23;;;;;;;;;;6294585;28;20476;-74
2022/04/07 09:37:05;;;;;;;11.95;9.25;;;;;;;;;;6294507;28;20036;-74
2022/04/07 09:40:10;;;;;;;15.73;13.45;;;;;;;;;;6295036;28;20060;-72
2022/04/07 09:43:12;;;;;;;21.65;16.45;;;;;;;;;;6294151;28;20488;-72
2022/04/07 09:46:16;;;;;;;15.85;10.80;;;;;;;;;;6295173;28;20067;-73
2022/04/07 09:49:18;;;;;;;16.25;10.30;;;;;;;;;;6296977;28;20052;-76
2022/04/07 09:52:21;;;;;;;17.70;10.45;;;;;;;;;;6295634;28;20121;-75
2022/04/07 09:55:24;;;;;;;13.13;9.57;;;;;;;;;;6294531;28;20044;-71
2022/04/07 09:58:26;;;;;;;14.43;9.98;;;;;;;;;;6295300;28;20134;-73
2022/04/07 10:01:30;;;;;;;16.00;11.53;;;;;;;;;;6295140;28;20127;-73
2022/04/07 10:04:32;;;;;;;17.30;12.38;;;;;;;;;;6294826;28;20041;-75
2022/04/07 10:07:34;;;;;;;16.65;11.70;;;;;;;;;;6292625;28;20056;-72
2022/04/07 10:10:37;;;;;;;12.90;10.80;;;;;;;;;;6294031;28;20053;-75
2022/04/07 10:13:39;;;;;;;46.35;36.60;;;;;;;;;;6293666;28;20056;-70
2022/04/07 10:16:42;;;;;;;22.85;15.38;;;;;;;;;;6293651;28;20052;-71
2022/04/07 10:19:46;;;;;;;15.77;13.05;;;;;;;;;;6292398;28;20190;-71
2022/04/07 10:23:00;;;;;;;16.27;13.23;;;;;;;;;;6292646;28;20048;-72
2022/04/07 10:26:03;;;;;;;35.35;26.75;;;;;;;;;;6292234;28;20049;-75
2022/04/07 10:29:05;;;;;;;23.47;18.20;;;;;;;;;;6294918;28;20484;-72
2022/04/07 10:32:22;;;;;;;14.95;12.52;;;;;;;;;;6294832;28;20651;-75
2022/04/07 10:35:36;;;;;;;18.92;14.60;;;;;;;;;;6292058;28;20079;-72
2022/04/07 10:38:39;;;;;;;18.17;14.23;;;;;;;;;;6289556;28;20048;-72
2022/04/07 10:41:48;;;;;;;18.60;13.70;;;;;;;;;;6291877;28;20048;-74
2022/04/07 10:45:05;;;;;;;16.83;13.15;;;;;;;;;;6291834;28;20080;-73
2022/04/07 10:48:29;;;;;;;16.95;13.13;;;;;;;;;;6289413;28;20051;-74
2022/04/07 10:51:42;;;;;;;21.42;13.70;;;;;;;;;;6281434;28;20044;-74
2022/04/07 10:55:10;;;;;;;20.58;13.57;;;;;;;;;;6292436;28;20072;-73
2022/04/07 10:58:12;;;;;;;19.67;13.55;;;;;;;;;;6289955;28;20032;-74
2022/04/07 11:01:19;;;;;;;;;;;;;;;;;;6291343;28;20119;-72
2022/04/07 11:04:44;;;;;;;15.82;11.70;;;;;;;;;;6288500;28;20065;-74
2022/04/07 11:07:52;;;;;;;16.20;11.98;;;;;;;;;;6288956;28;20044;-72
2022/04/07 11:10:55;;;;;;;14.57;11.55;;;;;;;;;;6290614;28;20048;-73
2022/04/07 11:14:00;;;;;;;18.95;11.75;;;;;;;;;;6290603;28;20056;-73
2022/04/07 11:17:02;;;;;;;14.70;11.68;;;;;;;;;;6288544;28;20056;-73
2022/04/07 11:20:06;;;;;;;12.00;9.88;;;;;;;;;;6290067;28;20060;-70
2022/04/07 11:23:09;;;;;;;16.00;13.07;;;;;;;;;;6291300;28;20064;-73
2022/04/07 11:26:12;;;;;;;16.45;14.48;;;;;;;;;;6292203;28;20050;-71
2022/04/07 11:29:14;;;;;;;13.70;10.82;;;;;;;;;;6291514;28;20137;-72
2022/04/07 11:32:16;;;;;;;14.05;10.57;;;;;;;;;;6291267;28;20052;-72
2022/04/07 11:35:19;;;;;;;14.13;9.93;;;;;;;;;;6290533;28;20045;-72
2022/04/07 11:38:21;;;;;;;11.32;9.95;;;;;;;;;;6291315;28;20094;-73
2022/04/07 11:41:23;;;;;;;13.40;9.88;;;;;;;;;;6287896;28;20055;-75
2022/04/07 11:44:25;;;;;;;10.77;9.20;;;;;;;;;;6291164;28;20049;-74
2022/04/07 11:47:30;;;;;;;12.80;9.43;;;;;;;;;;6289488;28;20183;-73
2022/04/07 11:50:34;;;;;;;10.85;8.95;;;;;;;;;;6289923;28;20311;-72
2022/04/07 11:53:35;;;;;;;10.35;8.43;;;;;;;;;;6287507;28;20052;-73
2022/04/07 11:56:39;;;;;;;9.50;8.50;;;;;;;;;;6290083;28;20052;-73
2022/04/07 11:59:42;;;;;;;9.65;7.75;;;;;;;;;;6291404;28;20079;-73
2022/04/07 12:02:43;;;;;;;;;;;;;;;;;;6292323;28;20416;-74
2022/04/07 12:05:48;;;;;;;11.02;8.38;;;;;;;;;;6291172;28;19928;-75
2022/04/07 12:08:50;;;;;;;10.15;7.97;;;;;;;;;;6296972;28;20041;-75
2022/04/07 12:11:52;;;;;;;11.50;7.65;;;;;;;;;;6295930;28;20048;-75
2022/04/07 12:14:54;;;;;;;11.05;7.88;;;;;;;;;;6293471;28;20048;-74
2022/04/07 12:17:59;;;;;;;10.63;8.68;;;;;;;;;;6284103;28;20060;-74
2022/04/07 12:21:05;;;;;;;12.10;8.63;;;;;;;;;;6294962;28;20048;-74
2022/04/07 12:24:09;;;;;;;9.80;8.43;;;;;;;;;;6294924;28;20067;-74
2022/04/07 12:27:26;;;;;;;8.77;7.88;;;;;;;;;;6294138;28;20508;-74
2022/04/07 12:30:42;;;;;;;10.05;7.22;;;;;;;;;;6293335;28;20049;-74
2022/04/07 12:33:44;;;;;;;8.10;6.65;;;;;;;;;;6295637;28;20509;-74
2022/04/07 12:36:48;;;;;;;10.40;6.82;;;;;;;;;;6294159;28;20168;-74
2022/04/07 12:39:51;;;;;;;8.60;6.68;;;;;;;;;;6294984;28;20518;-74
2022/04/07 12:42:54;;;;;;;8.02;6.63;;;;;;;;;;6294856;28;20044;-74
2022/04/07 12:45:56;;;;;;;9.50;7.40;;;;;;;;;;6294024;28;20124;-75
2022/04/07 12:49:03;;;;;;;7.53;6.80;;;;;;;;;;6293507;28;20048;-74
2022/04/07 12:52:11;;;;;;;7.63;6.68;;;;;;;;;;6294963;28;20041;-73
2022/04/07 12:55:15;;;;;;;9.65;7.00;;;;;;;;;;6293799;28;20472;-73
2022/04/07 12:58:27;;;;;;;10.38;7.18;;;;;;;;;;6295197;28;20067;-75
2022/04/07 13:01:29;;;;;;;8.97;6.60;;;;;;;;;;6294150;28;20135;-75
2022/04/07 13:04:47;;;;;;;11.38;7.50;;;;;;;;;;6294771;28;20094;-73
2022/04/07 13:07:50;;;;;;;9.23;7.30;;;;;;;;;;6294619;28;20182;-75
2022/04/07 13:10:52;;;;;;;9.38;7.50;;;;;;;;;;6295049;28;20405;-72
2022/04/07 13:13:53;;;;;;;12.65;6.15;;;;;;;;;;6295279;28;20206;-71
2022/04/07 13:16:55;;;;;;;8.32;6.78;;;;;;;;;;6285720;28;20076;-73
2022/04/07 13:19:57;;;;;;;9.50;7.13;;;;;;;;;;6293218;28;20141;-73
2022/04/07 13:23:00;;;;;;;28.73;22.48;;;;;;;;;;6291500;28;20045;-73
2022/04/07 13:26:01;;;;;;;15.35;12.02;;;;;;;;;;6294515;28;20053;-72
2022/04/07 13:29:03;;;;;;;7.50;6.63;;;;;;;;;;6294275;28;20055;-73
2022/04/07 13:32:06;;;;;;;8.93;6.68;;;;;;;;;;6294298;28;20408;-73
2022/04/07 13:35:08;;;;;;;9.20;6.82;;;;;;;;;;6293351;28;20186;-74
2022/04/07 13:38:11;;;;;;;7.60;5.88;;;;;;;;;;6294236;28;20139;-73
2022/04/07 13:41:13;;;;;;;9.60;5.95;;;;;;;;;;6293425;28;20114;-73
2022/04/07 13:44:15;;;;;;;16.53;6.60;;;;;;;;;;6295197;28;20049;-74
2022/04/07 13:47:17;;;;;;;6.77;6.07;;;;;;;;;;6293255;28;20123;-73
2022/04/07 13:50:19;;;;;;;6.82;5.40;;;;;;;;;;6294472;28;21004;-73
2022/04/07 13:53:22;;;;;;;10.45;5.93;;;;;;;;;;6295124;28;20071;-74
2022/04/07 13:56:24;;;;;;;7.90;5.88;;;;;;;;;;6293249;28;20045;-74
2022/04/07 13:59:26;;;;;;;9.85;6.28;;;;;;;;;;6293244;28;20158;-73
2022/04/07 14:02:29;;;;;;;19.70;7.38;;;;;;;;;;6293352;28;20064;-72
2022/04/07 14:05:31;;;;;;;11.65;6.90;;;;;;;;;;6291967;28;20056;-74
2022/04/07 14:08:34;;;;;;;12.02;5.60;;;;;;;;;;6292640;28;20044;-73
2022/04/07 14:11:37;;;;;;;10.35;6.18;;;;;;;;;;6289920;28;20457;-74
2022/04/07 14:14:39;;;;;;;9.13;5.63;;;;;;;;;;6292909;28;20652;-74
2022/04/07 14:17:41;;;;;;;12.45;7.53;;;;;;;;;;6292005;28;20106;-74
2022/04/07 14:20:43;;;;;;;13.75;7.00;;;;;;;;;;6291870;28;20049;-74
2022/04/07 14:23:48;;;;;;;17.40;6.93;;;;;;;;;;6292269;28;20257;-74
2022/04/07 14:26:50;;;;;;;36.20;6.97;;;;;;;;;;6292052;28;20060;-73
2022/04/07 14:29:52;;;;;;;35.05;8.13;;;;;;;;;;6291997;28;20124;-73
2022/04/07 14:32:53;;;;;;;13.07;7.25;;;;;;;;;;6291791;28;20056;-73
2022/04/07 14:35:55;;;;;;;14.30;7.10;;;;;;;;;;6291830;28;20129;-73
2022/04/07 14:38:58;;;;;;;12.93;6.82;;;;;;;;;;6291455;28;20041;-72
2022/04/07 14:42:00;;;;;;;10.02;6.25;;;;;;;;;;6291518;28;20452;-77
2022/04/07 14:45:02;;;;;;;50.80;41.97;;;;;;;;;;6290758;28;20412;-75
2022/04/07 14:48:04;;;;;;;33.35;24.98;;;;;;;;;;6291218;28;20071;-78
2022/04/07 14:51:06;;;;;;;12.75;9.50;;;;;;;;;;6289583;28;20066;-74
2022/04/07 14:54:09;;;;;;;31.15;8.35;;;;;;;;;;6291658;28;20063;-74
2022/04/07 14:57:11;;;;;;;33.25;8.60;;;;;;;;;;6290522;28;20088;-74
2022/04/07 15:00:14;;;;;;;22.30;7.72;;;;;;;;;;6292280;28;20051;-73
2022/04/07 15:03:15;;;;;;;47.30;8.30;;;;;;;;;;6289613;28;20059;-73
2022/04/07 15:06:17;;;;;;;35.58;8.45;;;;;;;;;;6291109;28;20386;-74
2022/04/07 15:09:20;;;;;;;39.00;8.23;;;;;;;;;;6289024;28;20175;-73
2022/04/07 15:12:22;;;;;;;13.80;7.07;;;;;;;;;;6290673;28;20545;-73
2022/04/07 15:15:24;;;;;;;11.68;7.22;;;;;;;;;;6291112;28;20041;-75
2022/04/07 15:18:26;;;;;;;11.75;7.47;;;;;;;;;;6291451;28;20084;-73
2022/04/07 15:21:27;;;;;;;14.85;6.88;;;;;;;;;;6291355;28;20049;-72
2022/04/07 15:24:30;;;;;;;8.77;5.47;;;;;;;;;;6292254;28;20105;-72
2022/04/07 15:27:32;;;;;;;7.00;4.63;;;;;;;;;;6291716;28;20103;-72
2022/04/07 15:30:34;;;;;;;3.75;2.47;;;;;;;;;;6291696;28;20052;-73
2022/04/07 15:33:36;;;;;;;8.07;3.75;;;;;;;;;;6290953;28;20145;-73
2022/04/07 15:36:37;;;;;;;10.33;3.53;;;;;;;;;;6291079;28;20175;-73
2022/04/07 15:39:40;;;;;;;4.85;3.67;;;;;;;;;;6290803;28;20052;-72
2022/04/07 15:42:42;;;;;;;11.82;4.88;;;;;;;;;;6294356;28;20055;-73
2022/04/07 15:45:44;;;;;;;9.30;3.63;;;;;;;;;;6294704;28;20070;-73
2022/04/07 15:48:45;;;;;;;8.32;2.08;;;;;;;;;;6296046;28;20054;-70
2022/04/07 15:51:47;;;;;;;6.43;1.90;;;;;;;;;;6295516;28;20056;-73
2022/04/07 15:54:50;;;;;;;4.80;1.70;;;;;;;;;;6296733;28;20040;-74
2022/04/07 15:57:52;;;;;;;;;;;;;;;;;;6296189;28;20524;-73
2022/04/07 16:00:54;;;;;;;2.33;1.60;;;;;;;;;;6296366;28;20011;-73
2022/04/07 16:03:55;;;;;;;9.27;1.70;;;;;;;;;;6296114;28;20045;-73
2022/04/07 16:06:57;;;;;;;5.88;1.73;;;;;;;;;;6295723;28;20307;-72
2022/04/07 16:10:00;;;;;;;4.68;1.85;;;;;;;;;;6294799;28;20055;-72
2022/04/07 16:13:01;;;;;;;6.32;1.40;;;;;;;;;;6293547;28;20060;-73
2022/04/07 16:16:04;;;;;;;5.75;1.70;;;;;;;;;;6295716;28;20055;-72
2022/04/07 16:19:06;;;;;;;4.40;1.60;;;;;;;;;;6295269;28;20124;-73
2022/04/07 16:22:07;;;;;;;4.43;2.25;;;;;;;;;;6295853;28;20053;-74
2022/04/07 16:25:11;;;;;;;8.95;2.10;;;;;;;;;;6294119;28;20044;-72
2022/04/07 16:28:12;;;;;;;5.00;1.70;;;;;;;;;;6296379;28;20044;-73
2022/04/07 16:31:14;;;;;;;9.30;1.77;;;;;;;;;;6293745;28;20044;-72
2022/04/07 16:34:17;;;;;;;10.88;2.38;;;;;;;;;;6294163;28;20048;-72
2022/04/07 16:37:19;;;;;;;5.93;1.60;;;;;;;;;;6294912;28;20101;-73
2022/04/07 16:40:23;;;;;;;8.95;1.88;;;;;;;;;;6295037;28;20407;-72
2022/04/07 16:43:25;;;;;;;6.85;2.00;;;;;;;;;;6295057;28;20056;-72
2022/04/07 16:46:27;;;;;;;4.47;1.98;;;;;;;;;;6294715;28;20060;-72
2022/04/07 16:49:30;;;;;;;6.60;1.88;;;;;;;;;;6293679;28;20056;-72
2022/04/07 16:52:32;;;;;;;;;;;;;;;;;;6295188;28;20148;-72
2022/04/07 16:55:34;;;;;;;2.35;1.77;;;;;;;;;;6291543;28;19967;-72
2022/04/07 16:58:36;;;;;;;3.20;1.90;;;;;;;;;;6294399;28;20115;-72
2022/04/07 17:01:38;;;;;;;4.57;1.98;;;;;;;;;;6293767;28;20139;-72
2022/04/07 17:04:39;;;;;;;6.50;2.15;;;;;;;;;;6294581;28;20177;-71
2022/04/07 17:07:41;;;;;;;4.82;2.08;;;;;;;;;;6292571;28;20175;-72
2022/04/07 17:10:44;;;;;;;4.68;2.08;;;;;;;;;;6294113;28;20350;-71
2022/04/07 17:13:46;;;;;;;4.13;2.22;;;;;;;;;;6293555;28;20048;-72
2022/04/07 17:16:49;;;;;;;6.30;2.20;;;;;;;;;;6293801;28;20080;-71
2022/04/07 17:19:51;;;;;;;5.13;2.17;;;;;;;;;;6293594;28;20048;-70
2022/04/07 17:22:53;;;;;;;4.70;2.30;;;;;;;;;;6293853;28;20052;-72
2022/04/07 17:25:59;;;;;;;5.90;2.40;;;;;;;;;;6294149;28;20170;-71
2022/04/07 17:29:00;;;;;;;4.75;3.03;;;;;;;;;;6293950;28;20048;-73
2022/04/07 17:32:02;;;;;;;5.28;1.63;;;;;;;;;;6294522;28;20051;-73
2022/04/07 17:35:04;;;;;;;7.65;2.22;;;;;;;;;;6291835;28;20198;-74
2022/04/07 17:38:05;;;;;;;4.20;2.10;;;;;;;;;;6293938;28;20145;-75
2022/04/07 17:41:08;;;;;;;4.32;2.22;;;;;;;;;;6292418;28;20076;-75
2022/04/07 17:44:10;;;;;;;5.45;2.38;;;;;;;;;;6294235;28;20121;-74
2022/04/07 17:47:14;;;;;;;7.85;2.63;;;;;;;;;;6293098;28;20048;-75
2022/04/07 17:50:16;;;;;;;6.18;2.03;;;;;;;;;;6293464;28;20522;-75
2022/04/07 17:53:18;;;;;;;5.53;2.60;;;;;;;;;;6293347;28;20135;-72
2022/04/07 17:56:21;;;;;;;5.07;2.28;;;;;;;;;;6293394;28;20044;-72
2022/04/07 17:59:22;;;;;;;2.47;2.03;;;;;;;;;;6292813;28;20079;-73
2022/04/07 18:02:24;;;;;;;7.30;2.40;;;;;;;;;;6293672;28;20076;-76
2022/04/07 18:05:26;;;;;;;8.05;2.25;;;;;;;;;;6292682;28;20060;-71
2022/04/07 18:08:29;;;;;;;5.72;2.47;;;;;;;;;;6293324;28;20409;-72
2022/04/07 18:11:32;;;;;;;;;;;;;;;;;;6294348;28;20120;-72